createdAt,value
2024-01-12T00:00:46.690Z,-4.60
2024-01-12T00:03:49.693Z,-4.60
2024-01-12T00:06:18.087Z,-4.59
2024-01-12T00:08:51.902Z,-4.58
2024-01-12T00:11:23.369Z,-4.59
2024-01-12T00:13:52.230Z,-4.62
2024-01-12T00:16:22.030Z,-4.61
2024-01-12T00:18:50.685Z,-4.52
2024-01-12T00:21:21.624Z,-4.48
2024-01-12T00:23:53.162Z,-4.45
2024-01-12T00:26:33.563Z,-4.49
2024-01-12T00:29:04.789Z,-4.54
2024-01-12T00:31:38.704Z,-4.55
2024-01-12T00:34:12.814Z,-4.55
2024-01-12T00:36:41.586Z,-4.51
2024-01-12T00:39:09.993Z,-4.50
2024-01-12T00:41:41.966Z,-4.49
2024-01-12T00:44:13.600Z,-4.47
2024-01-12T00:46:45.397Z,-4.42
2024-01-12T00:49:14.249Z,-4.42
2024-01-12T00:51:54.390Z,-4.35
2024-01-12T00:54:27.908Z,-4.29
2024-01-12T00:57:01.155Z,-4.31
2024-01-12T00:59:35.484Z,-4.30
2024-01-12T01:02:06.748Z,-4.28
2024-01-12T01:04:38.233Z,-4.27
2024-01-12T01:07:26.883Z,-4.29
2024-01-12T01:09:55.992Z,-4.26
2024-01-12T01:12:26.977Z,-4.21
2024-01-12T01:14:55.668Z,-4.18
2024-01-12T01:17:29.692Z,-4.20
2024-01-12T01:19:58.208Z,-4.23
2024-01-12T01:22:27.059Z,-4.26
2024-01-12T01:25:00.998Z,-4.26
2024-01-12T01:27:43.200Z,-4.30
2024-01-12T01:30:12.245Z,-4.31
2024-01-12T01:32:41.643Z,-4.28
2024-01-12T01:35:19.299Z,-4.25
2024-01-12T01:38:08.036Z,-4.23
2024-01-12T01:40:36.451Z,-4.26
2024-01-12T01:43:09.732Z,-4.23
2024-01-12T01:45:41.170Z,-4.20
2024-01-12T01:48:10.199Z,-4.15
2024-01-12T01:50:41.642Z,-4.17
2024-01-12T01:53:12.594Z,-4.18
2024-01-12T01:55:47.162Z,-4.22
2024-01-12T01:58:17.601Z,-4.29
2024-01-12T02:00:47.239Z,-4.28
2024-01-12T02:03:17.113Z,-4.26
2024-01-12T02:05:51.877Z,-4.25
2024-01-12T02:08:24.341Z,-4.22
2024-01-12T02:10:53.728Z,-4.24
2024-01-12T02:13:22.300Z,-4.26
2024-01-12T02:15:51.063Z,-4.30
2024-01-12T02:18:19.610Z,-4.26
2024-01-12T02:20:49.573Z,-4.20
2024-01-12T02:23:20.854Z,-4.13
2024-01-12T02:25:49.823Z,-4.15
2024-01-12T02:28:21.285Z,-4.16
2024-01-12T02:30:54.968Z,-4.17
2024-01-12T02:33:23.551Z,-4.14
2024-01-12T02:36:32.164Z,-4.09
2024-01-12T02:40:21.166Z,-4.07
2024-01-12T02:43:54.028Z,-4.11
2024-01-12T02:47:31.888Z,-4.20
2024-01-12T03:51:11.560Z,-4.27
2024-01-12T03:54:40.048Z,-4.27
2024-01-12T03:58:28.970Z,-4.27
2024-01-12T04:02:18.255Z,-4.25
2024-01-12T04:13:35.801Z,-4.25
2024-01-12T04:17:24.673Z,-4.23
2024-01-12T04:21:13.417Z,-4.20
2024-01-12T04:24:47.692Z,-4.19
2024-01-12T04:28:28.314Z,-4.16
2024-01-12T04:47:44.627Z,-4.03
2024-01-12T04:51:16.120Z,-3.98
2024-01-12T04:54:41.277Z,-3.96
2024-01-12T04:58:12.706Z,-3.95
2024-01-12T05:01:51.917Z,-4.02
2024-01-12T05:04:32.483Z,-4.05
2024-01-12T05:11:34.894Z,-3.98
2024-01-12T05:14:08.792Z,-3.89
2024-01-12T05:22:37.803Z,-3.90
2024-01-12T05:25:24.803Z,-3.91
2024-01-12T05:27:53.094Z,-3.94
2024-01-12T05:30:21.800Z,-3.92
2024-01-12T05:32:50.000Z,-3.87
2024-01-12T05:35:21.912Z,-3.87
2024-01-12T05:37:50.467Z,-3.90
2024-01-12T05:40:22.982Z,-3.90
2024-01-12T05:42:51.144Z,-3.91
2024-01-12T05:45:21.775Z,-3.94
2024-01-12T05:47:50.239Z,-3.93
2024-01-12T05:50:18.714Z,-3.92
2024-01-12T05:52:50.192Z,-3.90
2024-01-12T05:55:21.635Z,-3.86
2024-01-12T05:57:49.895Z,-3.87
2024-01-12T06:00:18.807Z,-3.89
2024-01-12T06:02:47.617Z,-3.91
2024-01-12T06:05:16.517Z,-3.91
2024-01-12T06:07:45.838Z,-3.89
2024-01-12T06:10:14.378Z,-3.85
2024-01-12T06:12:42.875Z,-3.80
2024-01-12T06:15:11.598Z,-3.80
2024-01-12T06:17:40.537Z,-3.78
2024-01-12T06:20:09.435Z,-3.74
2024-01-12T06:22:37.724Z,-3.73
2024-01-12T06:25:06.577Z,-3.73
2024-01-12T06:27:34.927Z,-3.73
2024-01-12T06:30:03.472Z,-3.68
2024-01-12T06:32:32.042Z,-3.62
2024-01-12T06:35:00.541Z,-3.59
2024-01-12T06:37:28.776Z,-3.57
2024-01-12T06:39:59.047Z,-3.57
2024-01-12T06:42:29.180Z,-3.56
2024-01-12T06:44:57.857Z,-3.53
2024-01-12T06:47:26.486Z,-3.50
2024-01-12T06:49:55.811Z,-3.44
2024-01-12T06:52:24.268Z,-3.36
2024-01-12T06:54:52.829Z,-3.26
2024-01-12T06:57:21.492Z,-3.24
2024-01-12T06:59:53.094Z,-3.25
2024-01-12T07:02:22.025Z,-3.23
2024-01-12T07:04:50.497Z,-3.22
2024-01-12T07:07:18.967Z,-3.21
2024-01-12T07:09:47.178Z,-3.15
2024-01-12T07:12:15.581Z,-3.11
2024-01-12T07:14:44.123Z,-3.07
2024-01-12T07:17:12.396Z,-3.02
2024-01-12T07:19:45.099Z,-3.03
2024-01-12T07:22:13.581Z,-3.02
2024-01-12T07:24:44.912Z,-3.00
2024-01-12T07:27:13.409Z,-2.96
2024-01-12T07:29:42.380Z,-2.88
2024-01-12T07:32:31.164Z,-2.84
2024-01-12T07:35:26.174Z,-2.83
2024-01-12T07:38:05.053Z,-2.81
2024-01-12T07:40:44.246Z,-2.78
2024-01-12T07:43:35.168Z,-2.78
2024-01-12T07:46:08.537Z,-2.79
2024-01-12T07:49:04.146Z,-2.77
2024-01-12T07:51:32.593Z,-2.72
2024-01-12T07:54:17.462Z,-2.65
2024-01-12T07:57:08.365Z,-2.61
2024-01-12T07:59:59.893Z,-2.58
2024-01-12T08:03:08.862Z,-2.55
2024-01-12T08:06:04.795Z,-2.53
2024-01-12T08:08:57.574Z,-2.52
2024-01-12T08:11:49.115Z,-2.51
2024-01-12T08:14:51.987Z,-2.45
2024-01-12T08:17:45.309Z,-2.41
2024-01-12T08:20:15.708Z,-2.36
2024-01-12T08:22:44.055Z,-2.31
2024-01-12T08:25:14.774Z,-2.29
2024-01-12T08:27:46.717Z,-2.29
2024-01-12T08:30:15.185Z,-2.24
2024-01-12T08:32:52.632Z,-2.19
2024-01-12T08:35:21.305Z,-2.16
2024-01-12T08:37:51.973Z,-2.12
2024-01-12T08:40:20.151Z,-2.06
2024-01-12T08:42:49.209Z,-2.01
2024-01-12T08:45:19.463Z,-1.95
2024-01-12T08:47:47.765Z,-1.92
2024-01-12T08:50:18.711Z,-1.90
2024-01-12T08:52:59.632Z,-1.85
2024-01-12T08:55:27.964Z,-1.84
2024-01-12T08:58:04.110Z,-1.82
2024-01-12T09:00:53.247Z,-1.76
2024-01-12T09:03:27.671Z,-1.68
2024-01-12T09:05:59.405Z,-1.67
2024-01-12T09:08:28.239Z,-1.63
2024-01-12T09:11:00.103Z,-1.58
2024-01-12T09:13:36.349Z,-1.51
2024-01-12T09:16:04.954Z,-1.42
2024-01-12T09:18:33.390Z,-1.36
2024-01-12T09:21:22.097Z,-1.31
2024-01-12T09:23:50.218Z,-1.25
2024-01-12T09:26:21.154Z,-1.21
2024-01-12T09:28:49.626Z,-1.16
2024-01-12T09:31:18.470Z,-1.08
2024-01-12T09:33:47.380Z,-1.00
2024-01-12T09:36:16.018Z,-0.93
2024-01-12T09:38:44.596Z,-0.87
2024-01-12T09:41:15.108Z,-0.83
2024-01-12T09:43:44.614Z,-0.78
2024-01-12T09:46:17.768Z,-0.70
2024-01-12T09:48:46.224Z,-0.65
2024-01-12T09:51:19.330Z,-0.67
2024-01-12T09:53:48.668Z,-0.60
2024-01-12T09:56:18.319Z,-0.57
2024-01-12T09:58:50.125Z,-0.62
2024-01-12T10:01:21.744Z,-0.65
2024-01-12T10:03:51.711Z,-0.68
2024-01-12T10:06:20.080Z,-0.70
2024-01-12T10:08:48.755Z,-0.69
2024-01-12T10:11:17.146Z,-0.67
2024-01-12T10:13:46.068Z,-0.62
2024-01-12T10:16:14.804Z,-0.57
2024-01-12T10:18:43.875Z,-0.50
2024-01-12T10:21:12.222Z,-0.45
2024-01-12T10:23:41.023Z,-0.38
2024-01-12T10:26:10.625Z,-0.35
2024-01-12T10:28:38.784Z,-0.33
2024-01-12T10:31:09.066Z,-0.33
2024-01-12T10:33:58.076Z,-0.35
2024-01-12T10:37:26.686Z,-0.29
2024-01-12T10:40:20.864Z,-0.18
2024-01-12T10:43:36.171Z,-0.19
2024-01-12T10:46:33.705Z,-0.23
2024-01-12T10:49:27.034Z,-0.20
2024-01-12T10:52:41.689Z,-0.18
2024-01-12T10:56:13.865Z,-0.15
2024-01-12T10:59:28.435Z,-0.13
2024-01-12T11:02:06.645Z,-0.02
2024-01-12T11:04:46.662Z,0.05
2024-01-12T11:07:16.331Z,0.14
2024-01-12T11:10:02.363Z,0.21
2024-01-12T11:12:41.925Z,0.26
2024-01-12T11:15:32.713Z,0.31
2024-01-12T11:18:06.680Z,0.37
2024-01-12T11:20:40.758Z,0.39
2024-01-12T11:23:20.735Z,0.40
2024-01-12T11:25:51.605Z,0.36
2024-01-12T11:28:19.816Z,0.43
2024-01-12T11:30:54.831Z,0.47
2024-01-12T11:33:49.243Z,0.51
2024-01-12T11:36:32.426Z,0.55
2024-01-12T11:39:06.526Z,0.54
2024-01-12T11:41:35.115Z,0.59
2024-01-12T11:44:09.441Z,0.50
2024-01-12T11:46:52.325Z,0.44
2024-01-12T11:49:44.124Z,0.39
2024-01-12T11:53:02.070Z,0.44
2024-01-12T11:56:18.708Z,0.48
2024-01-12T11:59:03.725Z,0.47
2024-01-12T12:02:12.158Z,0.47
2024-01-12T12:05:15.157Z,0.45
2024-01-12T12:07:52.357Z,0.49
2024-01-12T12:10:33.387Z,0.55
2024-01-12T12:14:12.127Z,0.59
2024-01-12T12:16:40.779Z,0.63
2024-01-12T12:19:28.278Z,0.66
2024-01-12T12:22:17.897Z,0.70
2024-01-12T12:25:29.563Z,0.66
2024-01-12T12:28:29.597Z,0.66
2024-01-12T12:32:00.995Z,0.62
2024-01-12T12:35:01.244Z,0.61
2024-01-12T12:38:27.088Z,0.62
2024-01-12T12:41:08.998Z,0.65
2024-01-12T12:44:29.478Z,0.62
2024-01-12T12:47:22.143Z,0.64
2024-01-12T12:50:40.055Z,0.60
2024-01-12T12:53:57.851Z,0.55
2024-01-12T12:57:09.080Z,0.51
2024-01-12T13:00:07.602Z,0.52
2024-01-12T13:02:42.530Z,0.51
2024-01-12T13:05:54.019Z,0.53
2024-01-12T13:08:57.252Z,0.53
2024-01-12T13:11:49.413Z,0.49
2024-01-12T13:14:36.657Z,0.50
2024-01-12T13:17:12.505Z,0.47
2024-01-12T13:19:48.470Z,0.51
2024-01-12T13:22:22.945Z,0.54
2024-01-12T13:24:51.201Z,0.60
2024-01-12T13:27:19.777Z,0.57
2024-01-12T13:29:51.073Z,0.59
2024-01-12T13:32:22.658Z,0.61
2024-01-12T13:34:54.151Z,0.57
2024-01-12T13:37:22.727Z,0.53
2024-01-12T13:39:51.235Z,0.48
2024-01-12T13:42:20.361Z,0.49
2024-01-12T13:44:48.798Z,0.50
2024-01-12T13:47:16.967Z,0.51
2024-01-12T13:50:00.512Z,0.47
2024-01-12T13:52:32.228Z,0.45
2024-01-12T13:55:06.430Z,0.39
2024-01-12T13:57:43.196Z,0.36
2024-01-12T14:00:32.642Z,0.29
2024-01-12T14:03:12.826Z,0.25
2024-01-12T14:05:49.766Z,0.22
2024-01-12T14:08:25.774Z,0.20
2024-01-12T14:10:57.519Z,0.22
2024-01-12T14:13:42.832Z,0.25
2024-01-12T14:16:27.886Z,0.23
2024-01-12T14:18:56.598Z,0.18
2024-01-12T14:21:25.379Z,0.15
2024-01-12T14:24:18.038Z,0.12
2024-01-12T14:26:54.771Z,0.09
2024-01-12T14:29:26.072Z,0.07
2024-01-12T14:32:11.218Z,0.04
2024-01-12T14:34:46.280Z,0.02
2024-01-12T14:37:18.197Z,-0.03
2024-01-12T14:39:56.681Z,-0.01
2024-01-12T14:42:38.833Z,0.02
2024-01-12T14:45:16.976Z,-0.00
2024-01-12T14:47:46.713Z,-0.04
2024-01-12T14:50:23.449Z,-0.06
2024-01-12T14:53:14.746Z,-0.09
2024-01-12T14:55:46.114Z,-0.14
2024-01-12T14:58:34.890Z,-0.16
2024-01-12T15:01:22.919Z,-0.19
2024-01-12T15:04:19.576Z,-0.23
2024-01-12T15:07:34.337Z,-0.26
2024-01-12T15:10:43.464Z,-0.25
2024-01-12T15:13:53.509Z,-0.21
2024-01-12T15:17:05.041Z,-0.22
2024-01-12T15:19:53.899Z,-0.24
2024-01-12T15:23:09.524Z,-0.25
2024-01-12T15:26:10.184Z,-0.26
2024-01-12T15:29:18.465Z,-0.27
2024-01-12T15:32:50.403Z,-0.30
2024-01-12T15:35:29.386Z,-0.29
2024-01-12T15:37:57.812Z,-0.29
2024-01-12T15:40:25.991Z,-0.30
2024-01-12T15:42:56.722Z,-0.28
2024-01-12T15:45:34.626Z,-0.26
2024-01-12T15:48:06.652Z,-0.24
2024-01-12T15:50:38.151Z,-0.24
2024-01-12T15:53:06.614Z,-0.24
2024-01-12T15:55:34.778Z,-0.24
2024-01-12T15:58:07.993Z,-0.20
2024-01-12T16:00:36.583Z,-0.17
2024-01-12T16:03:05.257Z,-0.21
2024-01-12T16:05:38.889Z,-0.29
2024-01-12T16:08:10.402Z,-0.33
2024-01-12T16:10:41.719Z,-0.37
2024-01-12T16:13:10.160Z,-0.38
2024-01-12T16:15:38.800Z,-0.48
2024-01-12T16:18:07.302Z,-0.45
2024-01-12T16:20:38.864Z,-0.51
2024-01-12T16:23:09.670Z,-0.54
2024-01-12T16:25:57.944Z,-0.68
2024-01-12T16:28:30.429Z,-0.82
2024-01-12T16:31:01.774Z,-0.81
2024-01-12T16:33:50.929Z,-0.79
2024-01-12T16:36:19.405Z,-0.95
2024-01-12T16:38:50.423Z,-0.99
2024-01-12T16:41:27.632Z,-1.09
2024-01-12T16:43:56.193Z,-1.06
2024-01-12T16:46:24.652Z,-1.18
2024-01-12T16:48:56.642Z,-1.24
2024-01-12T16:51:25.357Z,-1.35
2024-01-12T16:53:53.972Z,-1.43
2024-01-12T16:56:25.130Z,-1.44
2024-01-12T16:58:53.551Z,-1.52
2024-01-12T17:01:32.208Z,-1.52
2024-01-12T17:04:16.120Z,-1.56
2024-01-12T17:07:10.882Z,-1.61
2024-01-12T17:09:39.343Z,-1.70
2024-01-12T17:12:07.754Z,-1.76
2024-01-12T17:14:37.889Z,-1.79
2024-01-12T17:17:16.246Z,-1.80
2024-01-12T17:20:14.718Z,-1.73
2024-01-12T17:23:06.266Z,-1.75
2024-01-12T17:25:37.821Z,-1.78
2024-01-12T17:28:13.712Z,-1.84
2024-01-12T17:30:55.664Z,-1.88
2024-01-12T17:33:23.965Z,-1.90
2024-01-12T17:36:15.578Z,-1.91
2024-01-12T17:38:54.239Z,-1.86
2024-01-12T17:41:29.029Z,-1.77
2024-01-12T17:43:58.728Z,-1.86
2024-01-12T17:46:29.843Z,-1.87
2024-01-12T17:49:07.622Z,-1.90
2024-01-12T17:51:40.374Z,-1.91
2024-01-12T17:54:31.819Z,-1.93
2024-01-12T17:57:01.016Z,-1.92
2024-01-12T18:00:07.810Z,-1.92
2024-01-12T18:03:21.480Z,-1.94
2024-01-12T18:06:17.335Z,-1.99
2024-01-12T18:09:15.294Z,-1.97
2024-01-12T18:11:44.352Z,-2.04
2024-01-12T18:14:18.091Z,-2.04
2024-01-12T18:16:46.392Z,-2.04
2024-01-12T18:19:35.280Z,-2.08
2024-01-12T18:22:26.704Z,-2.04
2024-01-12T18:24:55.451Z,-2.01
2024-01-12T18:27:34.284Z,-2.02
2024-01-12T18:30:14.279Z,-2.03
2024-01-12T18:32:52.010Z,-2.10
2024-01-12T18:36:09.389Z,-2.19
2024-01-12T18:39:00.748Z,-2.21
2024-01-12T18:41:32.222Z,-2.16
2024-01-12T18:44:02.630Z,-2.17
2024-01-12T18:46:36.355Z,-2.14
2024-01-12T18:49:10.580Z,-2.19
2024-01-12T18:52:02.894Z,-2.18
2024-01-12T18:54:36.560Z,-2.19
2024-01-12T18:57:27.451Z,-2.23
2024-01-12T19:00:07.512Z,-2.19
2024-01-12T19:03:11.457Z,-2.20
2024-01-12T19:05:46.719Z,-2.30
2024-01-12T19:08:15.594Z,-2.30
2024-01-12T19:10:48.863Z,-2.30
2024-01-12T19:13:30.672Z,-2.39
2024-01-12T19:16:09.985Z,-2.45
2024-01-12T19:19:05.735Z,-2.42
2024-01-12T19:22:14.465Z,-2.46
2024-01-12T19:25:10.485Z,-2.42
2024-01-12T19:27:56.460Z,-2.50
2024-01-12T19:31:10.025Z,-2.49
2024-01-12T19:34:00.773Z,-2.46
2024-01-12T19:36:37.111Z,-2.45
2024-01-12T19:39:07.852Z,-2.47
2024-01-12T19:41:41.734Z,-2.47
2024-01-12T19:44:21.597Z,-2.44
2024-01-12T19:46:55.599Z,-2.44
2024-01-12T19:49:27.085Z,-2.51
2024-01-12T19:52:14.245Z,-2.52
2024-01-12T19:54:58.221Z,-2.48
2024-01-12T19:57:27.638Z,-2.46
2024-01-12T20:00:18.935Z,-2.44
2024-01-12T20:03:12.776Z,-2.46
2024-01-12T20:06:04.966Z,-2.48
2024-01-12T20:08:41.755Z,-2.57
2024-01-12T20:11:13.163Z,-2.59
2024-01-12T20:13:51.891Z,-2.57
2024-01-12T20:16:37.050Z,-2.51
2024-01-12T20:19:48.842Z,-2.57
2024-01-12T20:22:51.480Z,-2.59
2024-01-12T20:25:49.690Z,-2.61
2024-01-12T20:28:37.142Z,-2.63
2024-01-12T20:31:11.038Z,-2.67
2024-01-12T20:34:14.664Z,-2.67
2024-01-12T20:38:03.488Z,-2.65
2024-01-12T20:41:17.627Z,-2.68
2024-01-12T20:44:43.279Z,-2.71
2024-01-12T20:48:00.314Z,-2.74
2024-01-12T20:51:21.699Z,-2.75
2024-01-12T20:54:28.741Z,-2.79
2024-01-12T20:57:11.569Z,-2.82
2024-01-12T20:59:59.062Z,-2.74
2024-01-12T21:02:36.949Z,-2.84
2024-01-12T21:05:16.671Z,-2.86
2024-01-12T21:08:16.038Z,-2.88
2024-01-12T21:11:04.777Z,-2.93
2024-01-12T21:13:51.670Z,-2.93
2024-01-12T21:16:23.395Z,-2.95
2024-01-12T21:19:46.874Z,-2.99
2024-01-12T21:22:33.921Z,-2.96
2024-01-12T21:26:01.193Z,-2.91
2024-01-12T21:28:51.801Z,-2.89
2024-01-12T21:32:13.115Z,-2.90
2024-01-12T21:35:10.211Z,-2.92
2024-01-12T21:38:01.040Z,-2.94
2024-01-12T21:40:31.682Z,-2.93
2024-01-12T21:43:07.547Z,-2.91
2024-01-12T21:46:11.592Z,-2.98
2024-01-12T21:49:11.070Z,-2.99
2024-01-12T21:52:28.374Z,-3.00
2024-01-12T21:55:39.526Z,-2.93
2024-01-12T21:58:21.994Z,-2.91
2024-01-12T22:01:20.270Z,-2.97
2024-01-12T22:04:28.511Z,-2.92
2024-01-12T22:07:28.966Z,-3.00
2024-01-12T22:11:17.648Z,-3.05
2024-01-12T22:14:15.043Z,-3.01
2024-01-12T22:16:55.928Z,-3.09
2024-01-12T22:19:31.756Z,-3.10
2024-01-12T22:22:12.730Z,-3.03
2024-01-12T22:25:06.021Z,-3.01
2024-01-12T22:27:40.849Z,-3.02
2024-01-12T22:30:20.926Z,-3.06
2024-01-12T22:33:39.552Z,-3.08
2024-01-12T22:36:51.026Z,-3.14
2024-01-12T22:39:50.054Z,-3.11
2024-01-12T22:42:38.481Z,-3.15
2024-01-12T22:45:10.367Z,-3.14
2024-01-12T22:47:44.333Z,-3.14
2024-01-12T22:50:23.121Z,-3.08
2024-01-12T22:52:51.496Z,-3.15
2024-01-12T22:55:19.855Z,-3.15
2024-01-12T22:57:53.767Z,-3.21
2024-01-12T23:00:42.456Z,-3.26
2024-01-12T23:03:31.336Z,-3.31
2024-01-12T23:06:22.368Z,-3.32
2024-01-12T23:08:51.505Z,-3.35
2024-01-12T23:11:45.758Z,-3.34
2024-01-12T23:14:27.166Z,-3.28
2024-01-12T23:17:18.014Z,-3.31
2024-01-12T23:20:20.521Z,-3.35
2024-01-12T23:23:13.911Z,-3.35
2024-01-12T23:26:23.072Z,-3.40
2024-01-12T23:29:54.659Z,-3.43
2024-01-12T23:33:26.193Z,-3.44
2024-01-12T23:36:35.197Z,-3.43
2024-01-12T23:39:43.525Z,-3.44
2024-01-12T23:42:52.378Z,-3.44
2024-01-12T23:45:59.906Z,-3.47
2024-01-12T23:48:56.851Z,-3.45
